Time;durP1;ratioP1;P1;durP2;ratioP2;P2;SDS_P1;SDS_P2;PMS_P1;PMS_P2;Temp;Humidity;BMP_temperature;BMP_pressure;BME280_temperature;BME280_humidity;BME280_pressure;Samples;Min_cycle;Max_cycle;Signal;HPM_P1;HPM_P2
2022/08/01 00:01:33;;;;;;;4.83;4.27;;;21.40;1.00;;;;;;5010470;28;20791;-82
2022/08/01 00:03:59;;;;;;;5.53;4.37;;;21.40;99.90;;;;;;4998893;28;20542;-82
2022/08/01 00:06:25;;;;;;;4.67;3.57;;;21.40;1.00;;;;;;5010413;28;20179;-81
2022/08/01 00:08:50;;;;;;;3.57;3.27;;;21.40;1.00;;;;;;5013273;28;20468;-82
2022/08/01 00:11:16;;;;;;;7.00;3.40;;;21.40;1.00;;;;;;4992359;28;20726;-82
2022/08/01 00:13:42;;;;;;;5.90;3.60;;;21.30;1.00;;;;;;5010640;28;20214;-82
2022/08/01 00:16:08;;;;;;;4.40;3.83;;;21.30;1.00;;;;;;5005517;28;20188;-82
2022/08/01 00:18:35;;;;;;;3.93;3.23;;;21.30;1.00;;;;;;4994240;28;20184;-82
2022/08/01 00:21:01;;;;;;;4.17;3.73;;;21.30;1.00;;;;;;5010491;28;20226;-82
2022/08/01 00:23:26;;;;;;;4.60;4.20;;;21.20;1.00;;;;;;4993646;28;20847;-82
2022/08/01 00:25:52;;;;;;;5.43;4.30;;;21.20;1.00;;;;;;5009852;28;20442;-82
2022/08/01 00:28:18;;;;;;;10.57;3.90;;;21.20;25.60;;;;;;5003842;28;20238;-82
2022/08/01 00:30:43;;;;;;;4.00;3.60;;;21.10;47.90;;;;;;5007260;28;20205;-82
2022/08/01 00:33:09;;;;;;;5.43;4.20;;;21.10;83.40;;;;;;4993173;28;20207;-82
2022/08/01 00:35:34;;;;;;;7.77;3.83;;;21.10;83.40;;;;;;5010265;28;20183;-82
2022/08/01 00:38:00;;;;;;;4.50;4.20;;;21.10;71.10;;;;;;4991733;28;20730;-82
2022/08/01 00:40:25;;;;;;;5.87;4.63;;;21.10;77.30;;;;;;4995375;28;20202;-81
2022/08/01 00:42:51;;;;;;;7.07;4.17;;;21.10;64.40;;;;;;5008907;28;20537;-82
2022/08/01 00:45:16;;;;;;;8.07;4.40;;;21.10;97.00;;;;;;4992925;28;20187;-81
2022/08/01 00:47:42;;;;;;;4.17;3.53;;;21.10;49.70;;;;;;5006612;28;20264;-82
2022/08/01 00:50:09;;;;;;;6.27;3.63;;;21.20;51.00;;;;;;4994041;28;20273;-81
2022/08/01 00:52:34;;;;;;;5.20;3.67;;;21.20;30.00;;;;;;4992929;28;20191;-82
2022/08/01 00:55:00;;;;;;;5.77;3.33;;;21.10;36.60;;;;;;5006886;28;20519;-82
2022/08/01 00:57:26;;;;;;;4.30;3.17;;;21.20;20.40;;;;;;4989386;28;20180;-82
2022/08/01 00:59:52;;;;;;;3.93;3.30;;;21.20;22.10;;;;;;4988611;28;21195;-82
2022/08/01 01:02:18;;;;;;;4.30;3.90;;;21.10;68.80;;;;;;4990519;28;20380;-82
2022/08/01 01:04:44;;;;;;;5.70;3.43;;;21.10;59.00;;;;;;4994682;28;20448;-83
2022/08/01 01:07:14;;;;;;;6.33;3.90;;;21.10;99.90;;;;;;4988012;28;21091;-82
2022/08/01 01:09:52;;;;;;;5.87;3.63;;;21.10;70.00;;;;;;4992171;28;20183;-82
2022/08/01 01:12:45;;;;;;;4.67;3.60;;;21.10;95.30;;;;;;5012169;28;21003;-82
2022/08/01 01:15:17;;;;;;;4.70;4.20;;;21.10;90.00;;;;;;4994371;28;20442;-83
2022/08/01 01:17:57;;;;;;;6.53;3.60;;;21.10;99.90;;;;;;4989856;28;20532;-82
2022/08/01 01:20:28;;;;;;;4.17;3.47;;;21.10;94.80;;;;;;4984678;28;20459;-82
2022/08/01 01:23:01;;;;;;;5.07;3.37;;;21.10;99.90;;;;;;4992101;28;20471;-82
2022/08/01 01:25:48;;;;;;;4.53;3.73;;;21.10;99.90;;;;;;4989218;28;20473;-82
2022/08/01 01:28:45;;;;;;;3.77;3.47;;;21.10;99.90;;;;;;4991398;28;20451;-82
2022/08/01 01:31:13;;;;;;;7.70;3.57;;;21.10;99.90;;;;;;5009467;28;20465;-82
2022/08/01 01:33:40;;;;;;;4.40;3.87;;;21.10;99.90;;;;;;5004810;28;20548;-82
2022/08/01 01:36:11;;;;;;;4.50;3.57;;;21.00;99.90;;;;;;5001576;28;20437;-82
2022/08/01 01:38:44;;;;;;;5.07;3.40;;;21.00;99.90;;;;;;4991853;28;20430;-82
2022/08/01 01:41:16;;;;;;;4.93;3.60;;;21.10;99.90;;;;;;5007836;28;20482;-82
2022/08/01 01:43:43;;;;;;;5.73;3.43;;;21.00;99.90;;;;;;5007554;28;20447;-83
2022/08/01 01:46:11;;;;;;;5.27;4.77;;;21.00;99.90;;;;;;5005521;28;20437;-82
2022/08/01 01:48:38;;;;;;;6.90;4.77;;;21.00;99.90;;;;;;5009135;28;20457;-82
2022/08/01 01:51:05;;;;;;;8.70;3.80;;;21.00;99.90;;;;;;4990458;28;21008;-82
2022/08/01 01:53:34;;;;;;;5.00;3.37;;;21.00;99.90;;;;;;5005984;28;20556;-82
2022/08/01 01:56:01;;;;;;;6.63;3.50;;;21.00;99.90;;;;;;5005446;28;20437;-82
2022/08/01 01:58:28;;;;;;;6.00;4.10;;;21.00;99.90;;;;;;5007440;28;20443;-82
2022/08/01 02:00:56;;;;;;;5.13;3.50;;;21.00;99.90;;;;;;4992810;28;20461;-82
2022/08/01 02:03:23;;;;;;;12.13;4.40;;;21.00;99.90;;;;;;5006400;28;20537;-83
2022/08/01 02:05:52;;;;;;;6.87;4.37;;;21.00;99.90;;;;;;5003733;28;20447;-82
2022/08/01 02:08:17;;;;;;;5.90;3.90;;;21.00;99.90;;;;;;5003374;28;20448;-82
2022/08/01 02:11:17;;;;;;;6.70;4.20;;;21.00;99.90;;;;;;5041937;23;20473;-83
2022/08/01 02:13:36;;;;;;;6.50;4.70;;;20.90;99.90;;;;;;5003905;28;20373;-84
2022/08/01 02:16:03;;;;;;;5.10;4.60;;;20.90;99.90;;;;;;5002274;28;20811;-84
2022/08/01 02:18:29;;;;;;;5.40;4.00;;;20.90;99.90;;;;;;5004801;28;20467;-84
2022/08/01 02:20:57;;;;;;;4.83;4.33;;;20.90;99.90;;;;;;5000831;28;20447;-83
2022/08/01 02:23:26;;;;;;;5.93;4.60;;;20.90;99.90;;;;;;4989522;28;20454;-84
2022/08/01 02:25:54;;;;;;;4.67;4.20;;;20.90;99.90;;;;;;4988439;28;20465;-83
2022/08/01 02:28:27;;;;;;;4.80;4.40;;;21.00;99.90;;;;;;4984504;28;20501;-86
2022/08/01 02:30:56;;;;;;;8.80;5.13;;;21.00;99.90;;;;;;4983935;28;20449;-86
2022/08/01 02:33:26;;;;;;;7.30;4.43;;;21.00;99.90;;;;;;4988072;28;20462;-82
2022/08/01 02:35:56;;;;;;;5.33;4.77;;;21.00;99.90;;;;;;4988720;28;20449;-83
2022/08/01 02:38:25;;;;;;;5.73;4.27;;;21.00;99.90;;;;;;4990299;28;20781;-84
2022/08/01 02:40:54;;;;;;;10.23;4.87;;;21.00;99.90;;;;;;4971528;28;20505;-84
2022/08/01 02:43:23;;;;;;;5.77;4.77;;;21.00;99.90;;;;;;4988197;28;20796;-86
2022/08/01 02:45:53;;;;;;;6.83;4.67;;;21.10;99.90;;;;;;4983733;28;20521;-87
2022/08/01 02:48:21;;;;;;;5.80;4.40;;;21.10;99.90;;;;;;4985980;28;20477;-86
2022/08/01 02:50:53;;;;;;;5.07;4.20;;;21.10;99.90;;;;;;4986038;28;20522;-84
2022/08/01 02:53:21;;;;;;;7.30;5.70;;;21.10;99.90;;;;;;4985096;28;20466;-83
2022/08/01 02:55:49;;;;;;;7.80;4.50;;;21.10;99.90;;;;;;4988688;28;20442;-82
2022/08/01 02:58:18;;;;;;;6.97;4.60;;;21.10;99.90;;;;;;4988099;28;20455;-84
2022/08/01 03:00:45;;;;;;;6.63;4.70;;;21.10;99.90;;;;;;4986315;28;20438;-82
2022/08/01 03:03:13;;;;;;;7.67;5.20;;;21.10;99.90;;;;;;4987142;28;20517;-84
2022/08/01 03:05:40;;;;;;;5.93;5.23;;;21.10;99.90;;;;;;4986197;28;20565;-84
2022/08/01 03:08:08;;;;;;;4.90;4.37;;;21.00;99.90;;;;;;4991512;28;20493;-84
2022/08/01 03:10:39;;;;;;;7.60;5.53;;;21.00;99.90;;;;;;4994512;28;20465;-84
2022/08/01 03:13:07;;;;;;;11.30;6.40;;;21.00;99.90;;;;;;4991446;28;20473;-86
2022/08/01 03:15:35;;;;;;;6.70;5.83;;;21.00;99.90;;;;;;4993225;28;20449;-84
2022/08/01 03:18:04;;;;;;;7.20;5.57;;;21.00;99.90;;;;;;4991460;28;20439;-83
2022/08/01 03:20:32;;;;;;;9.70;5.97;;;21.00;99.90;;;;;;4988332;28;20961;-84
2022/08/01 03:23:03;;;;;;;7.03;6.33;;;21.00;99.90;;;;;;4972874;28;20552;-83
2022/08/01 03:25:29;;;;;;;13.30;6.80;;;21.00;99.90;;;;;;4990013;28;20477;-84
2022/08/01 03:27:59;;;;;;;7.07;5.80;;;21.00;99.90;;;;;;4986239;28;20457;-86
2022/08/01 03:30:26;;;;;;;7.60;5.83;;;21.00;99.90;;;;;;4986771;28;20527;-84
2022/08/01 03:32:52;;;;;;;7.90;5.67;;;21.00;99.90;;;;;;4990174;28;20839;-84
2022/08/01 03:35:18;;;;;;;7.63;6.00;;;21.00;99.90;;;;;;4993097;28;20518;-84
2022/08/01 03:37:50;;;;;;;8.60;5.57;;;21.00;99.90;;;;;;4972935;28;20190;-83
2022/08/01 03:40:48;;;;;;;7.37;5.60;;;21.00;99.90;;;;;;4992716;28;21019;-84
2022/08/01 03:43:27;;;;;;;8.30;5.47;;;21.00;99.90;;;;;;4990355;28;20928;-86
2022/08/01 03:45:56;;;;;;;7.73;5.70;;;20.90;99.90;;;;;;4990077;28;20521;-85
2022/08/01 03:48:28;;;;;;;9.73;5.73;;;20.90;99.90;;;;;;4989451;28;20451;-83
2022/08/01 03:50:55;;;;;;;7.87;6.03;;;20.90;99.90;;;;;;4974004;28;20438;-87
2022/08/01 03:53:28;;;;;;;7.93;6.60;;;20.90;99.90;;;;;;4973202;28;21038;-84
2022/08/01 03:55:58;;;;;;;8.43;6.10;;;20.90;99.90;;;;;;4992744;28;20450;-84
2022/08/01 03:58:24;;;;;;;8.07;6.30;;;20.90;99.90;;;;;;4974062;28;20548;-84
2022/08/01 04:00:50;;;;;;;10.07;8.10;;;20.90;99.90;;;;;;4992523;28;21025;-83
2022/08/01 04:03:16;;;;;;;9.23;7.70;;;20.90;99.90;;;;;;4988335;28;20441;-84
2022/08/01 04:05:42;;;;;;;8.53;7.63;;;20.90;99.90;;;;;;4989643;28;20195;-84
2022/08/01 04:08:08;;;;;;;10.43;8.17;;;20.80;99.90;;;;;;4972575;28;20450;-83
2022/08/01 04:10:34;;;;;;;11.60;8.43;;;20.80;99.90;;;;;;4992435;28;20434;-84
2022/08/01 04:12:59;;;;;;;15.43;8.13;;;20.90;99.90;;;;;;4990551;28;20272;-84
2022/08/01 04:15:25;;;;;;;13.00;8.30;;;20.90;99.90;;;;;;4989386;28;20679;-84
2022/08/01 04:17:51;;;;;;;8.60;7.70;;;20.80;99.90;;;;;;4988230;28;20191;-83
2022/08/01 04:20:17;;;;;;;13.47;8.20;;;20.90;99.90;;;;;;4974234;28;20710;-84
2022/08/01 04:22:42;;;;;;;15.67;8.57;;;20.80;99.90;;;;;;4992422;28;20207;-83
2022/08/01 04:25:17;;;;;;;11.73;8.57;;;20.80;99.90;;;;;;4990679;28;20493;-84
2022/08/01 04:27:46;;;;;;;15.10;8.97;;;20.80;99.90;;;;;;4974332;28;20198;-83
2022/08/01 04:30:14;;;;;;;13.90;8.37;;;20.90;99.90;;;;;;4985064;28;20434;-83
2022/08/01 04:32:42;;;;;;;15.90;9.50;;;20.90;99.90;;;;;;4973644;28;20550;-85
2022/08/01 04:35:11;;;;;;;15.10;10.10;;;20.90;99.90;;;;;;4985792;28;20441;-85
2022/08/01 04:37:38;;;;;;;12.40;9.70;;;20.90;99.90;;;;;;4987751;28;20441;-82
2022/08/01 04:40:06;;;;;;;9.93;8.77;;;20.90;99.90;;;;;;4989267;28;20449;-84
2022/08/01 04:42:33;;;;;;;14.60;10.50;;;20.90;99.90;;;;;;4983219;28;20463;-84
2022/08/01 04:44:58;;;;;;;13.00;8.47;;;20.90;99.90;;;;;;4990514;28;20533;-85
2022/08/01 04:47:25;;;;;;;12.60;9.07;;;20.90;99.90;;;;;;4987749;28;20533;-85
2022/08/01 04:49:52;;;;;;;12.30;9.57;;;20.90;99.90;;;;;;4986409;28;20187;-82
2022/08/01 04:52:17;;;;;;;14.17;9.17;;;20.90;99.90;;;;;;4988367;28;20469;-83
2022/08/01 04:54:43;;;;;;;11.47;9.30;;;21.00;99.90;;;;;;4976185;28;20470;-84
2022/08/01 04:57:09;;;;;;;13.50;9.80;;;21.00;99.90;;;;;;4990160;28;20197;-84
2022/08/01 04:59:41;;;;;;;15.70;10.00;;;21.00;99.90;;;;;;4974176;28;20246;-84
2022/08/01 05:02:20;;;;;;;16.70;11.00;;;21.00;99.90;;;;;;4971244;28;20651;-84
2022/08/01 05:04:46;;;;;;;19.77;10.40;;;20.90;99.90;;;;;;4985565;28;20443;-83
2022/08/01 05:07:13;;;;;;;17.80;10.60;;;20.90;99.90;;;;;;4990406;28;20438;-82
2022/08/01 05:09:41;;;;;;;12.83;11.27;;;20.90;99.90;;;;;;4976626;28;20450;-84
2022/08/01 05:12:08;;;;;;;18.40;11.20;;;21.00;99.90;;;;;;4991380;28;21070;-85
2022/08/01 05:14:34;;;;;;;13.73;11.83;;;21.00;99.90;;;;;;4993204;28;20524;-84
2022/08/01 05:17:04;;;;;;;18.90;11.90;;;21.10;99.90;;;;;;4974470;28;20454;-83
2022/08/01 05:19:34;;;;;;;14.70;11.57;;;21.20;99.90;;;;;;4974545;28;20461;-84
2022/08/01 05:22:00;;;;;;;20.10;11.80;;;21.40;99.90;;;;;;4989379;28;20472;-83
2022/08/01 05:24:29;;;;;;;16.70;11.87;;;21.50;99.90;;;;;;4986259;28;20997;-84
2022/08/01 05:26:58;;;;;;;17.20;12.57;;;21.60;99.90;;;;;;4975116;28;20553;-85
2022/08/01 05:29:25;;;;;;;15.77;12.20;;;21.70;99.90;;;;;;4990319;28;20447;-84
2022/08/01 05:31:51;;;;;;;16.63;13.10;;;21.90;8.30;;;;;;4974691;28;20472;-85
2022/08/01 05:34:17;;;;;;;17.43;11.60;;;22.00;1.00;;;;;;4992392;28;20531;-85
2022/08/01 05:36:43;;;;;;;13.27;8.60;;;22.00;1.00;;;;;;4991224;28;20448;-84
2022/08/01 05:39:09;;;;;;;13.77;8.87;;;22.10;1.00;;;;;;4993168;28;20494;-85
2022/08/01 05:41:36;;;;;;;11.63;9.00;;;22.10;1.00;;;;;;4990110;28;20470;-84
2022/08/01 05:44:02;;;;;;;16.50;12.53;;;22.00;1.00;;;;;;4988497;28;20223;-85
2022/08/01 05:46:30;;;;;;;15.60;10.90;;;22.10;1.00;;;;;;4989285;28;21334;-86
2022/08/01 05:48:56;;;;;;;18.83;10.97;;;22.10;1.00;;;;;;4971342;28;20459;-84
2022/08/01 05:51:22;;;;;;;16.80;11.73;;;22.20;1.00;;;;;;4987961;28;20469;-85
2022/08/01 05:53:47;;;;;;;12.43;10.23;;;22.30;99.90;;;;;;4989666;28;20474;-84
2022/08/01 05:56:13;;;;;;;18.63;11.90;;;22.50;99.90;;;;;;4988331;28;20197;-84
2022/08/01 05:58:38;;;;;;;17.50;11.80;;;22.60;1.00;;;;;;4988379;28;20651;-84
2022/08/01 06:01:04;;;;;;;18.30;12.53;;;22.70;1.00;;;;;;4972913;28;20210;-85
2022/08/01 06:03:31;;;;;;;14.93;13.37;;;22.70;99.90;;;;;;4986881;28;20186;-84
2022/08/01 06:05:57;;;;;;;19.47;13.10;;;22.80;1.00;;;;;;4985352;28;20193;-83
2022/08/01 06:08:22;;;;;;;19.60;13.83;;;22.70;1.00;;;;;;4990718;28;20996;-84
2022/08/01 06:10:48;;;;;;;19.10;14.80;;;22.70;1.00;;;;;;4990773;28;20476;-85
2022/08/01 06:13:14;;;;;;;18.10;13.03;;;22.80;99.90;;;;;;4985239;28;20486;-85
2022/08/01 06:15:40;;;;;;;18.20;13.47;;;22.70;99.90;;;;;;4974140;28;20441;-85
2022/08/01 06:18:05;;;;;;;20.00;14.50;;;22.70;1.00;;;;;;4989181;28;20665;-86
2022/08/01 06:20:31;;;;;;;16.63;14.07;;;22.70;99.90;;;;;;4991979;28;20186;-85
2022/08/01 06:22:57;;;;;;;16.60;14.10;;;22.70;99.90;;;;;;4990361;28;20214;-85
2022/08/01 06:25:23;;;;;;;18.00;14.93;;;22.80;1.00;;;;;;4986772;28;20254;-85
2022/08/01 06:27:49;;;;;;;16.30;14.50;;;22.90;99.90;;;;;;4987566;28;20498;-85
2022/08/01 06:30:15;;;;;;;14.80;13.20;;;23.10;1.00;;;;;;4990394;28;20187;-86
2022/08/01 06:32:40;;;;;;;18.63;16.63;;;23.30;99.90;;;;;;4989290;28;20468;-86
2022/08/01 06:35:06;;;;;;;19.67;16.30;;;23.70;1.00;;;;;;4990595;28;20196;-86
2022/08/01 06:37:33;;;;;;;19.80;14.07;;;24.30;1.00;;;;;;4970212;28;20187;-86
2022/08/01 06:40:05;;;;;;;13.93;12.53;;;27.40;1.00;;;;;;4987489;28;20481;-86
2022/08/01 06:42:35;;;;;;;16.43;13.77;;;28.80;1.00;;;;;;4991000;28;21002;-86
2022/08/01 06:45:06;;;;;;;15.00;12.63;;;29.10;99.90;;;;;;4993163;28;20459;-86
2022/08/01 06:47:31;;;;;;;14.20;12.80;;;29.10;99.90;;;;;;4986577;28;20438;-86
2022/08/01 06:49:57;;;;;;;16.13;14.43;;;29.00;99.90;;;;;;4979615;28;20497;-87
2022/08/01 06:52:22;;;;;;;14.73;13.17;;;30.10;99.90;;;;;;4990564;28;20195;-87
2022/08/01 06:54:48;;;;;;;13.90;12.60;;;33.50;99.90;;;;;;4989532;28;20211;-88
2022/08/01 06:57:13;;;;;;;13.90;12.60;;;35.10;99.90;;;;;;4992081;28;20632;-87
2022/08/01 06:59:39;;;;;;;13.10;11.90;;;34.00;99.90;;;;;;4990756;28;20204;-88
2022/08/01 07:02:05;;;;;;;11.07;10.17;;;39.80;99.90;;;;;;4987514;28;20238;-85
2022/08/01 07:04:30;;;;;;;12.50;11.40;;;44.40;99.90;;;;;;4988456;28;20191;-85
2022/08/01 07:06:56;;;;;;;10.80;9.97;;;48.00;99.90;;;;;;4992103;28;20194;-86
2022/08/01 07:09:32;;;;;;;9.83;9.13;;;50.60;99.90;;;;;;4994300;28;20702;-86
2022/08/01 07:12:03;;;;;;;8.77;7.90;;;52.60;99.90;;;;;;4977628;28;20687;-86
2022/08/01 07:14:29;;;;;;;9.87;9.07;;;51.30;99.90;;;;;;4991931;28;20250;-86
2022/08/01 07:16:54;;;;;;;9.93;9.13;;;47.40;99.90;;;;;;4989795;28;20466;-86
2022/08/01 07:19:20;;;;;;;10.97;10.17;;;44.00;96.00;;;;;;4990887;28;20191;-87
2022/08/01 07:21:45;;;;;;;11.17;10.17;;;41.00;90.90;;;;;;4993859;28;20219;-88
2022/08/01 07:24:13;;;;;;;11.13;10.23;;;39.00;86.60;;;;;;4989755;28;20214;-87
2022/08/01 07:26:40;;;;;;;11.50;10.30;;;41.00;93.30;;;;;;4989145;28;20314;-88
2022/08/01 07:29:05;;;;;;;10.90;9.90;;;39.90;90.50;;;;;;4990683;28;20461;-88
2022/08/01 07:31:31;;;;;;;11.50;10.53;;;37.80;82.10;;;;;;4986495;28;20541;-86
2022/08/01 07:33:56;;;;;;;12.30;11.10;;;35.70;79.00;;;;;;4991192;28;20372;-86
2022/08/01 07:36:22;;;;;;;13.37;10.73;;;36.60;90.10;;;;;;4977403;28;20244;-85
2022/08/01 07:38:48;;;;;;;11.73;10.80;;;36.40;90.00;;;;;;4992704;28;20909;-87
2022/08/01 07:41:14;;;;;;;12.03;10.93;;;35.90;90.20;;;;;;4988382;28;20192;-87
2022/08/01 07:43:40;;;;;;;11.40;10.30;;;36.70;92.70;;;;;;4992597;28;20442;-87
2022/08/01 07:46:06;;;;;;;12.23;11.13;;;35.30;89.00;;;;;;4989790;28;20434;-87
2022/08/01 07:48:34;;;;;;;10.53;9.47;;;36.50;92.90;;;;;;4991231;28;20286;-87
2022/08/01 07:50:59;;;;;;;12.17;10.90;;;35.10;90.50;;;;;;4986595;28;20457;-85
2022/08/01 07:53:25;;;;;;;12.73;11.07;;;33.70;88.60;;;;;;4990626;28;20471;-86
2022/08/01 07:55:51;;;;;;;12.20;11.00;;;32.60;89.90;;;;;;4990491;28;20271;-86
2022/08/01 07:58:17;;;;;;;12.83;11.53;;;31.50;90.80;;;;;;4991363;28;20435;-86
2022/08/01 08:00:43;;;;;;;13.90;12.50;;;31.10;93.00;;;;;;4991998;28;20189;-85
2022/08/01 08:03:09;;;;;;;14.33;12.07;;;31.00;95.90;;;;;;4986782;28;20179;-86
2022/08/01 08:05:35;;;;;;;11.53;10.50;;;30.40;96.70;;;;;;4989096;28;20542;-86
2022/08/01 08:08:10;;;;;;;10.40;9.47;;;29.60;98.20;;;;;;4989282;28;20215;-84
2022/08/01 08:10:36;;;;;;;10.33;9.40;;;29.20;99.80;;;;;;4972048;28;20511;-86
2022/08/01 08:13:01;;;;;;;9.97;9.07;;;28.80;99.90;;;;;;4990167;28;20474;-85
2022/08/01 08:15:28;;;;;;;10.10;9.17;;;28.40;99.90;;;;;;4991299;28;20489;-87
2022/08/01 08:17:53;;;;;;;8.50;7.70;;;28.20;99.90;;;;;;4990026;28;20194;-88
2022/08/01 08:20:24;;;;;;;9.67;7.20;;;28.10;99.90;;;;;;4987001;28;20800;-87
2022/08/01 08:22:53;;;;;;;9.07;7.40;;;28.00;99.90;;;;;;4989758;28;20205;-87
2022/08/01 08:25:19;;;;;;;8.73;7.93;;;27.80;99.90;;;;;;4987607;28;20523;-87
2022/08/01 08:27:45;;;;;;;11.73;10.00;;;27.50;99.90;;;;;;4990550;28;20514;-87
2022/08/01 08:30:12;;;;;;;11.90;10.70;;;27.40;99.90;;;;;;4985399;28;20171;-88
2022/08/01 08:32:37;;;;;;;10.97;9.80;;;27.20;99.90;;;;;;4989845;28;20455;-87
2022/08/01 08:35:04;;;;;;;13.47;12.20;;;27.10;99.90;;;;;;4987354;28;20442;-84
2022/08/01 08:37:30;;;;;;;13.00;10.97;;;26.80;99.90;;;;;;4990882;28;20734;-85
2022/08/01 08:39:56;;;;;;;13.07;11.77;;;26.60;99.90;;;;;;4991619;28;20530;-87
2022/08/01 08:42:22;;;;;;;14.27;12.90;;;26.40;99.90;;;;;;4985396;28;20684;-86
2022/08/01 08:44:48;;;;;;;15.60;13.50;;;26.20;99.90;;;;;;4990521;28;20193;-88
2022/08/01 08:47:15;;;;;;;14.43;13.00;;;26.10;99.90;;;;;;4991100;28;20518;-87
2022/08/01 08:49:43;;;;;;;14.70;13.20;;;26.30;99.90;;;;;;4986804;28;20653;-87
2022/08/01 08:52:10;;;;;;;15.40;13.73;;;26.80;99.90;;;;;;4975628;28;20454;-86
2022/08/01 08:54:38;;;;;;;11.47;10.37;;;27.70;99.90;;;;;;4989328;28;20478;-87
2022/08/01 08:57:04;;;;;;;10.13;9.23;;;30.60;99.90;;;;;;4973658;28;20439;-85
2022/08/01 08:59:31;;;;;;;8.43;7.63;;;32.00;99.90;;;;;;4987346;28;20451;-86
2022/08/01 09:01:57;;;;;;;9.40;8.60;;;32.00;99.90;;;;;;4990366;28;20480;-86
2022/08/01 09:04:23;;;;;;;10.03;9.03;;;33.40;99.90;;;;;;4988584;28;20439;-88
2022/08/01 09:06:49;;;;;;;9.80;8.40;;;34.70;99.90;;;;;;4986833;28;20531;-87
2022/08/01 09:09:15;;;;;;;8.33;7.57;;;37.70;99.90;;;;;;4971333;28;20194;-85
2022/08/01 09:11:40;;;;;;;12.37;8.50;;;37.40;99.90;;;;;;4990694;28;20227;-85
2022/08/01 09:14:12;;;;;;;7.87;7.17;;;38.50;99.90;;;;;;4992954;28;20211;-86
2022/08/01 09:16:42;;;;;;;8.07;7.33;;;39.30;99.90;;;;;;4988891;28;20333;-86
2022/08/01 09:19:14;;;;;;;8.00;7.30;;;39.20;99.90;;;;;;4985712;28;20442;-86
2022/08/01 09:21:58;;;;;;;11.23;8.63;;;38.10;99.90;;;;;;4990199;28;20540;-86
2022/08/01 09:24:25;;;;;;;9.40;8.60;;;37.10;99.90;;;;;;4972699;28;20961;-85
2022/08/01 09:26:52;;;;;;;7.63;6.93;;;36.00;99.90;;;;;;4975098;28;20442;-87
2022/08/01 09:29:20;;;;;;;9.32;8.43;;;35.20;99.90;;;;;;4989643;28;20447;-85
2022/08/01 09:31:46;;;;;;;9.07;8.13;;;35.20;99.90;;;;;;4986846;28;20702;-86
2022/08/01 09:34:12;;;;;;;9.57;8.67;;;35.20;99.90;;;;;;4988010;28;20466;-86
2022/08/01 09:36:55;;;;;;;7.00;6.30;;;36.20;99.90;;;;;;4970655;28;20447;-86
2022/08/01 09:39:26;;;;;;;5.47;4.97;;;36.70;99.90;;;;;;4987800;28;20438;-85
2022/08/01 09:41:53;;;;;;;5.53;5.00;;;36.10;99.90;;;;;;4985299;28;20490;-86
2022/08/01 09:44:20;;;;;;;5.53;5.03;;;35.80;99.90;;;;;;4989130;28;20500;-86
2022/08/01 09:46:55;;;;;;;4.33;4.00;;;35.60;99.20;;;;;;4988336;28;20798;-86
2022/08/01 09:49:33;;;;;;;5.27;4.53;;;35.40;97.90;;;;;;4988277;28;20488;-87
2022/08/01 09:52:13;;;;;;;5.83;5.23;;;35.30;97.10;;;;;;4989497;28;20473;-85
2022/08/01 09:54:39;;;;;;;6.37;5.87;;;35.00;96.10;;;;;;4990725;28;20503;-85
2022/08/01 09:57:12;;;;;;;5.37;4.87;;;34.70;99.90;;;;;;4987472;28;20446;-85
2022/08/01 09:59:41;;;;;;;6.77;5.80;;;34.60;96.30;;;;;;4990147;28;21036;-86
2022/08/01 10:02:08;;;;;;;4.97;4.47;;;35.10;97.10;;;;;;4987982;28;20888;-86
2022/08/01 10:04:34;;;;;;;5.60;5.10;;;36.50;99.40;;;;;;4990247;28;20779;-86
2022/08/01 10:07:07;;;;;;;6.17;5.63;;;37.70;99.90;;;;;;4983380;28;20434;-86
2022/08/01 10:12:04;;;;;;;7.03;5.10;;;40.50;99.90;;;;;;5022229;22;20876;-87
2022/08/01 10:14:30;;;;;;;5.80;5.30;;;41.40;98.70;;;;;;5004450;28;20481;-87
2022/08/01 10:17:02;;;;;;;5.03;4.63;;;41.20;96.40;;;;;;5001979;28;20176;-88
2022/08/01 10:19:29;;;;;;;4.73;4.33;;;40.40;92.10;;;;;;5003798;28;20489;-87
2022/08/01 10:21:57;;;;;;;4.60;4.30;;;40.50;92.10;;;;;;5002081;28;20613;-87
2022/08/01 10:24:23;;;;;;;5.53;5.03;;;40.80;90.20;;;;;;4984293;28;20884;-87
2022/08/01 10:26:52;;;;;;;4.60;4.10;;;41.00;89.30;;;;;;5007430;28;20493;-87
2022/08/01 10:29:20;;;;;;;5.43;4.93;;;40.50;91.20;;;;;;4991085;28;20554;-86
2022/08/01 10:31:49;;;;;;;7.00;6.40;;;39.90;78.80;;;;;;5001068;28;20450;-87
2022/08/01 10:34:18;;;;;;;5.10;4.67;;;39.50;76.90;;;;;;5001968;28;20437;-88
2022/08/01 10:36:45;;;;;;;4.90;4.43;;;39.20;75.30;;;;;;5001513;28;20438;-87
2022/08/01 10:39:14;;;;;;;5.40;4.53;;;39.00;74.00;;;;;;5005494;28;20503;-88
2022/08/01 10:41:40;;;;;;;5.10;4.70;;;38.80;72.30;;;;;;4985860;28;20488;-88
2022/08/01 10:44:08;;;;;;;5.37;4.87;;;38.30;70.00;;;;;;5005359;28;20552;-88
2022/08/01 10:46:46;;;;;;;5.70;4.60;;;37.80;67.60;;;;;;4989534;28;20864;-88
2022/08/01 10:49:15;;;;;;;5.87;5.37;;;37.50;68.60;;;;;;5006348;28;20840;-88
2022/08/01 10:51:41;;;;;;;5.10;4.60;;;37.10;67.00;;;;;;5008917;28;21126;-87
2022/08/01 10:54:09;;;;;;;5.60;5.10;;;36.90;67.40;;;;;;5002855;28;20949;-87
2022/08/01 10:56:49;;;;;;;5.57;5.10;;;36.90;68.40;;;;;;5008302;28;20449;-87
2022/08/01 10:59:27;;;;;;;5.50;5.10;;;37.30;71.00;;;;;;5001749;28;20433;-87
2022/08/01 11:02:04;;;;;;;7.23;6.60;;;37.30;71.40;;;;;;4990123;28;20453;-88
2022/08/01 11:04:36;;;;;;;5.63;5.13;;;38.40;75.20;;;;;;4989332;28;20564;-87
2022/08/01 11:07:17;;;;;;;5.30;4.90;;;38.30;73.60;;;;;;5000849;28;20446;-87
2022/08/01 11:09:45;;;;;;;6.60;5.10;;;38.00;70.00;;;;;;4988884;28;20450;-87
2022/08/01 11:12:19;;;;;;;4.00;3.70;;;38.30;71.50;;;;;;4996898;28;20941;-88
2022/08/01 11:15:15;;;;;;;4.97;4.57;;;39.30;73.80;;;;;;4984418;28;20437;-88
2022/08/01 11:17:48;;;;;;;6.07;5.57;;;40.10;73.90;;;;;;5007642;28;20438;-88
2022/08/01 11:20:53;;;;;;;5.00;4.60;;;41.10;76.00;;;;;;4991830;28;20507;-88
2022/08/01 11:23:19;;;;;;;3.57;3.27;;;41.20;70.20;;;;;;4993231;28;20481;-88
2022/08/01 11:25:47;;;;;;;4.20;2.20;;;39.80;62.20;;;;;;4997142;28;20468;-88
2022/08/01 11:28:16;;;;;;;6.13;3.03;;;38.70;58.00;;;;;;4996824;28;20521;-88
2022/08/01 11:30:54;;;;;;;4.10;3.70;;;37.80;55.40;;;;;;5009567;28;21103;-88
2022/08/01 11:33:40;;;;;;;4.60;4.20;;;37.20;55.10;;;;;;4990256;28;20445;-88
2022/08/01 11:36:11;;;;;;;5.00;4.10;;;36.40;53.30;;;;;;4992183;28;20516;-88
2022/08/01 11:39:07;;;;;;;5.07;3.30;;;35.90;53.20;;;;;;5009074;28;20864;-87
2022/08/01 11:41:35;;;;;;;4.00;2.57;;;35.50;52.90;;;;;;4992345;28;20493;-88
2022/08/01 11:44:28;;;;;;;3.23;3.03;;;35.40;54.00;;;;;;5011080;28;20472;-87
2022/08/01 11:46:59;;;;;;;3.97;3.17;;;35.30;54.40;;;;;;4984442;28;20853;-88
2022/08/01 11:49:37;;;;;;;2.80;2.60;;;35.80;57.20;;;;;;4996582;28;20445;-88
2022/08/01 11:52:22;;;;;;;2.53;2.07;;;35.90;57.20;;;;;;4992369;28;20533;-88
2022/08/01 11:54:55;;;;;;;2.93;1.70;;;35.80;56.50;;;;;;4989958;28;20470;-87
2022/08/01 11:57:26;;;;;;;2.03;1.90;;;36.50;58.80;;;;;;4989008;28;20418;-88
2022/08/01 11:59:54;;;;;;;1.80;1.70;;;37.20;60.00;;;;;;4985814;28;20491;-86
2022/08/01 12:02:31;;;;;;;2.70;1.70;;;37.30;58.40;;;;;;5007313;28;20430;-87
2022/08/01 12:04:59;;;;;;;2.13;1.87;;;36.70;55.60;;;;;;5010187;28;20460;-86
2022/08/01 12:07:27;;;;;;;2.70;1.97;;;37.10;57.20;;;;;;5006135;28;20426;-87
2022/08/01 12:10:00;;;;;;;3.83;1.53;;;37.00;55.50;;;;;;5008695;28;20487;-86
2022/08/01 12:12:26;;;;;;;3.47;1.80;;;37.40;57.00;;;;;;5002851;28;20415;-87
2022/08/01 12:14:54;;;;;;;2.90;1.87;;;37.70;56.40;;;;;;5006911;28;20425;-88
2022/08/01 12:17:31;;;;;;;1.73;1.63;;;38.20;57.00;;;;;;4997325;28;20847;-87
2022/08/01 12:19:57;;;;;;;1.67;1.30;;;38.90;57.70;;;;;;4979353;28;20437;-85
2022/08/01 12:22:24;;;;;;;1.60;1.50;;;39.60;58.40;;;;;;5001607;28;20434;-86
2022/08/01 12:24:51;;;;;;;1.77;1.50;;;39.90;57.60;;;;;;5000460;28;20274;-87
2022/08/01 12:27:28;;;;;;;2.53;1.20;;;39.80;56.30;;;;;;4993022;28;20500;-87
2022/08/01 12:29:55;;;;;;;2.07;1.40;;;39.90;54.40;;;;;;5008872;28;20456;-87
2022/08/01 12:32:41;;;;;;;1.30;1.20;;;39.70;52.90;;;;;;4999519;28;20520;-88
2022/08/01 12:35:09;;;;;;;2.83;1.10;;;39.60;50.10;;;;;;4990466;28;20446;-90
2022/08/01 12:37:49;;;;;;;2.70;1.73;;;39.10;47.40;;;;;;4980622;28;20446;-86
2022/08/01 12:40:21;;;;;;;1.80;1.53;;;38.50;44.90;;;;;;4995970;28;20459;-87
2022/08/01 12:42:52;;;;;;;3.50;1.80;;;38.30;45.40;;;;;;5006154;28;20457;-85
2022/08/01 12:45:21;;;;;;;1.93;1.63;;;38.10;44.40;;;;;;5011120;28;20934;-87
2022/08/01 12:47:47;;;;;;;1.93;1.67;;;37.90;44.10;;;;;;5003096;28;20455;-87
2022/08/01 12:50:16;;;;;;;1.97;1.60;;;37.60;43.70;;;;;;5006540;28;20449;-86
2022/08/01 12:52:42;;;;;;;2.87;1.50;;;37.50;44.10;;;;;;5009184;28;20461;-87